Nearby METAR Reports

 

KC09 - Morris-Washburn, Illinois, USA
Distance from station: NW 9mi, 14km
Updated: Fri, 23-Feb-2018 4:15am CST
Heavy rain, Overcast
Heavy rain, Overcast
 Wind from SSE
Wind: SSE 8 mph , 13 km/h
Temperature: 41°F , 5°C
Wind Chill: 36°F , 2°C
Dew Point: 39°F , 4°C
Humidity: 93%
Barometer: 30.12 inHg , 1020 hPa
Summary: Heavy rain
Clouds: Overcast
Visibility: 1 3/4 miles , 5 km
Cloud details: Overcast 200 ft
2018/02/23 10:15 KC09 231015Z AUTO 16007KT 1 3/4SM +RA OVC002 05/04 A3012 RMK AO2 P0006 T00450041
KJOT - Joliet, Illinois, USA
Distance from station: NNE 13mi, 22km
Updated: Fri, 23-Feb-2018 4:15am CST
Rain, Overcast
Rain, Overcast
 Wind from SE
Wind: SE 9 mph , 15 km/h
Temperature: 39°F , 4°C
Wind Chill: 33°F , 1°C
Dew Point: 39°F , 4°C
Humidity: 100%
Barometer: 30.11 inHg , 1019.6 hPa
Summary: Rain
Clouds: Overcast
Visibility: 3 miles , 5 km
Cloud details: Overcast 200 ft
2018/02/23 10:15 KJOT 231015Z AUTO 14008KT 3SM RA OVC002 04/04 A3011 RMK AO2 P0003 T00420042
 
KLOT - Romeoville/Chi, Illinois, USA
Distance from station: NNE 21mi, 33km
Updated: Fri, 23-Feb-2018 4:15am CST
Rain, Overcast
Rain, Overcast
 Wind from SSE
Wind: SSE 14 mph , 22 km/h
Temperature: 37°F , 3°C
Wind Chill: 28°F , -2°C
Dew Point: 37°F , 3°C
Humidity: 100%
Barometer: 30.11 inHg , 1019.6 hPa
Summary: Rain
Clouds: Overcast
Visibility: 3 miles , 5 km
Cloud details: Overcast 200 ft
2018/02/23 10:15 KLOT 231015Z AUTO 15012KT 3SM RA OVC002 03/03 A3011 RMK AO2 T00320032
KIKK - Kankakee, Illinois, USA
Distance from station: SE 30mi, 48km
Updated: Fri, 23-Feb-2018 4:15am CST
Fog, Overcast
Fog, Overcast
 Wind from SE
Wind: SE 15 mph , 24 km/h
Temperature: 39°F , 4°C
Wind Chill: 31°F , -1°C
Dew Point: 39°F , 4°C
Humidity: 100%
Barometer: 30.12 inHg , 1020 hPa
Summary: Fog
Clouds: Overcast
Visibility: 1/2 mile , 2 km
Cloud details: Overcast 200 ft
2018/02/23 10:15 KIKK 231015Z AUTO 13013KT 1/2SM FG OVC002 04/04 A3012 RMK AO2 T00400036
 
KARR - Chicago/Aurora, Illinois, USA
Distance from station: NNW 31mi, 50km
Updated: Fri, 23-Feb-2018 4:08am CST
Light rain, Mist, Overcast
Light rain, Mist, Overcast
 Wind from SE
Wind: SE 12 mph , 19 km/h
Temperature: 39°F , 4°C
Wind Chill: 32°F , 0°C
Dew Point: 37°F , 3°C
Humidity: 93%
Barometer: 30.10 inHg , 1019.3 hPa
Summary: Light rain, Mist
Clouds: Overcast
Visibility: 3 miles , 5 km
Cloud details: Overcast 300 ft
2018/02/23 10:08 KARR 231008Z AUTO 14010KT 3SM -RA BR OVC003 04/03 A3010 RMK AO2 P0000 T00390033
KPNT - Pontiac, Illinois, USA
Distance from station: SSW 34mi, 54km
Updated: Fri, 23-Feb-2018 4:15am CST
Light rain, Overcast
Light rain, Overcast
 Wind from SSE
Wind: SSE 5 mph , 7 km/h
Temperature: 43°F , 6°C
Wind Chill: 40°F , 4°C
Dew Point: 43°F , 6°C
Humidity: 100%
Barometer: 30.13 inHg , 1020.3 hPa
Summary: Light rain
Clouds: Overcast
Visibility: 1 1/2 miles , 2 km
Cloud details: Overcast 300 ft
2018/02/23 10:15 KPNT 231015Z AUTO 15004KT 1 1/2SM -RA OVC003 06/06 A3013 RMK AO2 P0006 T00610058
 
KDPA - Chicago/Dupage, Illinois, USA
Distance from station: N 40mi, 64km
Updated: Fri, 23-Feb-2018 4:17am CST
Light rain, Mist, Overcast
Light rain, Mist, Overcast
 Wind from SE
Wind: SE 10 mph , 17 km/h
Temperature: 39°F , 4°C
Wind Chill: 32°F , 0°C
Dew Point: 39°F , 4°C
Humidity: 100%
Barometer: 30.09 inHg , 1019 hPa
Summary: Light rain, Mist
Clouds: Overcast
Visibility: 3 miles , 5 km
Cloud details: Overcast 300 ft
2018/02/23 10:17 KDPA 231017Z 14009KT 3SM -RA BR OVC003 04/04 A3009 RMK AO2 P0002 T00390039
KIGQ - Chicago/Lansing, Illinois, USA
Distance from station: ENE 42mi, 67km
Updated: Fri, 23-Feb-2018 4:15am CST
Mist, Overcast
Mist, Overcast
 Wind from SSE
Wind: SSE 6 mph , 9 km/h
Temperature: 37°F , 3°C
Wind Chill: 32°F , 0°C
Dew Point: 37°F , 3°C
Humidity: 100%
Barometer: 30.15 inHg , 1021 hPa
Summary: Mist
Clouds: Overcast
Visibility: 4 miles , 6 km
Cloud details: Overcast 300 ft
2018/02/23 10:15 KIGQ 231015Z AUTO 16005KT 4SM BR OVC003 03/03 A3015 RMK AO2 T00330033
 
KMDW - Chicago, Illinois, USA
Distance from station: NE 42mi, 67km
Updated: Fri, 23-Feb-2018 3:53am CST
Light rain, Mist, Overcast
Light rain, Mist, Overcast
 Wind from SSE
Wind: SSE 10 mph , 17 km/h
Temperature: 39°F , 4°C
Wind Chill: 32°F , 0°C
Dew Point: 39°F , 4°C
Humidity: 100%
Barometer: 30.13 inHg , 1020.3 hPa
Summary: Light rain, Mist
Clouds: Overcast
Visibility: 1 1/4 miles , 2 km
Cloud details: Overcast 400 ft
2018/02/23 09:53 KMDW 230953Z 15009KT 1 1/4SM -RA BR OVC004 04/04 A3013 RMK AO2 RAB27DZB43E50 SLP211 P0000 T00440039
KVYS - Peru, Illinois, USA
Distance from station: W 44mi, 71km
Updated: Fri, 23-Feb-2018 4:15am CST
Mist, Overcast
Mist, Overcast
 Wind from SSE
Wind: SSE 12 mph , 19 km/h
Temperature: 41°F , 5°C
Wind Chill: 34°F , 1°C
Dew Point: 41°F , 5°C
Humidity: 100%
Barometer: 30.10 inHg , 1019.3 hPa
Summary: Mist
Clouds: Overcast
Visibility: 4 miles , 6 km
Cloud details: Overcast 300 ft
2018/02/23 10:15 KVYS 231015Z AUTO 16010KT 4SM BR OVC003 05/05 A3010 RMK AO2 P0001 T00500045
 
KDKB - De Kalb, Illinois, USA
Distance from station: NNW 46mi, 74km
Updated: Fri, 23-Feb-2018 4:15am CST
Rain, Overcast
Rain, Overcast
 Wind from SSE
Wind: SSE 12 mph , 19 km/h
Temperature: 37°F , 3°C
Wind Chill: 29°F , -2°C
Dew Point: 37°F , 3°C
Humidity: 100%
Barometer: 30.09 inHg , 1019 hPa
Summary: Rain
Clouds: Overcast
Visibility: 1 mile , 2 km
Cloud details: Overcast 200 ft
2018/02/23 10:15 KDKB 231015Z AUTO 15010KT 1SM RA OVC002 03/03 A3009 RMK AO2 P0001 T00300030
KORD - Chicago O'hare, Illinois, USA
Distance from station: NNE 48mi, 78km
Updated: Fri, 23-Feb-2018 4:23am CST
Light rain, Mist, Overcast
Light rain, Mist, Overcast
 Wind from SSE
Wind: SSE 9 mph , 15 km/h
Temperature: 39°F , 4°C
Wind Chill: 33°F , 1°C
Dew Point: 37°F , 3°C
Humidity: 93%
Barometer: 30.10 inHg , 1019.3 hPa
Summary: Light rain, Mist
Clouds: Overcast
Visibility: 3 miles , 5 km
Cloud details: Overcast 400 ft
2018/02/23 10:23 KORD 231023Z 15008KT 3SM -RA BR OVC004 04/03 A3010 RMK AO2 P0001 T00390028
 
KGYY - Gary Regional, Indiana, USA
Distance from station: ENE 49mi, 80km
Updated: Fri, 23-Feb-2018 4:15am CST
Light drizzle, Overcast
Light drizzle, Overcast
 Wind from SSE
Wind: SSE 8 mph , 13 km/h
Temperature: 41°F , 5°C
Wind Chill: 36°F , 2°C
Dew Point: 39°F , 4°C
Humidity: 93%
Barometer: 30.15 inHg , 1021 hPa
Summary: Light Drizzle
Clouds: Overcast
Visibility: 5 miles , 8 km
Cloud details: Overcast 500 ft
2018/02/23 10:15 KGYY 231015Z AUTO 16007KT 5SM -DZ OVC005 05/04 A3015 RMK AO2 T00450038